首页
METAR-TAF:

METAR-TAF

机场 :

達沙古茲機場

达沙古兹, 土库曼斯坦

纬度: 41-45-53N, 经度: 059-49-59E, 海拔: 83米

当前天气观测

该预报发布于50分钟前的13:00 UTC
风速8节,风向西
温度 3°C
湿度 52%
气压 1027 hPa
能见度10公里或以上
1500米以下无云,无积雨云

METAR: UTAT 271300Z 27008KT CAVOK 03/M06 Q1027 R26/CLRD70 NOSIG

时间: 18:50 (13:50 UTC)

预报

该预报发布于3小时和15分钟前的10:35 UTC
预报有效从27日的 12点(UTC)到 28日的 12点(UTC)
风速16节,风向西
能见度10公里或以上
多云层高于5000英尺
短暂存在
从 27日的 12点(UTC)到 27日的 15点(UTC)
风速16节,风向北转西北

TAF: UTAT 271035Z 2712/2812 27016KT 9999 BKN050 TEMPO 2712/2715 33016KT

超过4000个机场的气象观测和天气预报(METAR&TAF报告)。

可查询的气象台以黄色和红色小点在地图上表示。

将鼠标移到小点上方,可查看气象台名称。

然后点击查看天气观测和预报。

如需切换地图:点击带黑十字的绿色按钮放大地图;点击带横线的绿色按钮缩小地图;或者点击绿色箭头查看邻近地区的地图。


METAR-TAF: